This is the latest recevied weather packets stored in our database for station/object IN3ISU-13. If no packets are shown the sender has not sent any weather packets the latest 10 day(s).
| Time | Temp. | Humidity | Pressure | Rain* | Wind** | Luminosity | Snow |
|---|---|---|---|---|---|---|---|
| 1788136202 | 70° F | 35% | 762.8 mmHg | 0 in | - | - | - |
| 1788134402 | 71° F | 56% | 763.6 mmHg | 0 in | - | - | - |
| 1788132602 | 71° F | 57% | 762.8 mmHg | 0 in | - | - | - |
| 1788130801 | 72° F | 33% | 763.6 mmHg | 0 in | - | - | - |
| 1788129002 | 72° F | 64% | 763.6 mmHg | 0 in | - | - | - |
| 1788127202 | 71° F | 80% | 762.8 mmHg | 0 in | - | - | - |
| 1788125402 | 73° F | 30% | 762.8 mmHg | 0 in | - | - | - |
| 1788121802 | 73° F | 77% | 762.8 mmHg | 0 in | - | - | - |
| 1788120001 | 73° F | 77% | 762.8 mmHg | 0 in | - | - | - |
| 1788118202 | 74° F | 76% | 762.1 mmHg | 0 in | - | - | - |
| 1788116402 | 73° F | 76% | 762.8 mmHg | 0 in | - | - | - |
| 1788114602 | 75° F | 78% | 762.8 mmHg | 0 in | - | - | - |
| 1788112802 | 76° F | 77% | 762.1 mmHg | 0 in | - | - | - |
| 1788111002 | 79° F | 72% | 762.1 mmHg | 0 in | - | - | - |
| 1788109202 | 79° F | 72% | 761.3 mmHg | 0 in | - | - | - |
| 1788107402 | 85° F | 36% | 761.3 mmHg | 0 in | - | - | - |
| 1788105602 | 85° F | 35% | 760.6 mmHg | 0 in | - | - | - |
| 1788103802 | 87° F | 42% | 760.6 mmHg | 0 in | - | - | - |
| 1788102003 | 87° F | 41% | 760.6 mmHg | 0 in | - | - | - |
| 1788100201 | 89° F | 35% | 760.6 mmHg | 0 in | - | - | - |
| 1788098402 | 89° F | 35% | 760.6 mmHg | 0 in | - | - | - |
| 1788096602 | 89° F | 32% | 761.3 mmHg | 0 in | - | - | - |
| 1788094801 | 89° F | 32% | 761.3 mmHg | 0 in | - | - | - |
| 1788093002 | 88° F | 35% | 761.3 mmHg | 0 in | - | - | - |
| 1788091202 | 87° F | 36% | 761.3 mmHg | 0 in | - | - | - |
* Rain latest hour (hover to see other rain measurements)
** Current wind speed in m/s (hover to see current wind gust speed)